ミッドウェー島 の空港の天気 - METARとTAF

ヘンダーソン基地 ( PMDY / MDY ) - 合衆国領有小離島 ミッドウェー島
飛行場実況気象(Metar)
観測時間11/17 19:56 SST (11/18 06:56 UTC)
風向・風速南 3m/s
視程10km以上
天気現象
なし
気温23.3℃
湿度71%
気圧1019.7hPa
METARPMDY 180656Z AUTO 19005KT 10SM CLR 23/18 A3011 RMK AO2 SLP197 T02330178
過去の天気等 Google飛行場航空写真 Wunderground天気予報

過去48時間のMETAR

飛行場予報(TAF)
発表時間: 11/17 18:20 SST (11/18 05:20 UTC)
予報対象時間: 17日19時 SST ~ 18日19時 SST
風向・風速南南西 3m/s
視程10km以上
全天の4割程度の雲 雲底高度 910m
18日16時 SST から
風向・風速北北西 4m/s
視程10km以上
天気現象周辺でしゅう雨
全天の8割程度の雲 雲底高度 1520m
PMDY 180520Z 1806/1906 20006KT P6SM SCT030
FM190300 33008KT P6SM VCSH BKN050